sensor_id;sensor_type;location;lat;lon;timestamp;temperature;humidity
23087;DHT22;11712;51.134;4.156;2023-05-15T00:01:06;10.10;99.90
23087;DHT22;11712;51.134;4.156;2023-05-15T00:03:31;10.00;99.90
23087;DHT22;11712;51.134;4.156;2023-05-15T00:05:57;10.00;99.90
23087;DHT22;11712;51.134;4.156;2023-05-15T00:08:23;10.10;99.90
23087;DHT22;11712;51.134;4.156;2023-05-15T00:10:49;10.00;99.90
23087;DHT22;11712;51.134;4.156;2023-05-15T00:13:16;10.00;99.90
23087;DHT22;11712;51.134;4.156;2023-05-15T00:15:42;9.90;99.90
23087;DHT22;11712;51.134;4.156;2023-05-15T00:18:07;9.90;99.90
23087;DHT22;11712;51.134;4.156;2023-05-15T00:20:33;9.90;99.90
23087;DHT22;11712;51.134;4.156;2023-05-15T00:22:58;10.10;99.90
23087;DHT22;11712;51.134;4.156;2023-05-15T00:25:24;10.00;99.90
23087;DHT22;11712;51.134;4.156;2023-05-15T00:27:49;10.00;99.90
23087;DHT22;11712;51.134;4.156;2023-05-15T00:30:15;10.00;99.90
23087;DHT22;11712;51.134;4.156;2023-05-15T00:32:41;10.00;99.90
23087;DHT22;11712;51.134;4.156;2023-05-15T00:35:06;10.00;99.90
23087;DHT22;11712;51.134;4.156;2023-05-15T00:37:32;10.10;99.90
23087;DHT22;11712;51.134;4.156;2023-05-15T00:39:58;10.30;99.90
23087;DHT22;11712;51.134;4.156;2023-05-15T00:42:23;10.20;99.90
23087;DHT22;11712;51.134;4.156;2023-05-15T00:44:49;10.10;99.90
23087;DHT22;11712;51.134;4.156;2023-05-15T00:47:16;10.00;99.90
23087;DHT22;11712;51.134;4.156;2023-05-15T00:49:43;10.00;99.90
23087;DHT22;11712;51.134;4.156;2023-05-15T00:52:09;10.00;99.90
23087;DHT22;11712;51.134;4.156;2023-05-15T00:54:35;9.90;99.90
23087;DHT22;11712;51.134;4.156;2023-05-15T00:57:01;9.90;99.90
23087;DHT22;11712;51.134;4.156;2023-05-15T00:59:28;9.90;99.90
23087;DHT22;11712;51.134;4.156;2023-05-15T01:01:54;10.00;99.90
23087;DHT22;11712;51.134;4.156;2023-05-15T01:04:20;10.00;99.90
23087;DHT22;11712;51.134;4.156;2023-05-15T01:06:45;10.00;99.90
23087;DHT22;11712;51.134;4.156;2023-05-15T01:09:13;10.00;99.90
23087;DHT22;11712;51.134;4.156;2023-05-15T01:11:39;10.00;99.90
23087;DHT22;11712;51.134;4.156;2023-05-15T01:14:06;9.90;99.90
23087;DHT22;11712;51.134;4.156;2023-05-15T01:16:33;9.90;99.90
23087;DHT22;11712;51.134;4.156;2023-05-15T01:18:58;9.90;99.90
23087;DHT22;11712;51.134;4.156;2023-05-15T01:31:43;9.80;99.90
23087;DHT22;11712;51.134;4.156;2023-05-15T01:34:12;9.80;99.90
23087;DHT22;11712;51.134;4.156;2023-05-15T01:36:42;9.70;99.90
23087;DHT22;11712;51.134;4.156;2023-05-15T01:39:11;9.80;99.90
23087;DHT22;11712;51.134;4.156;2023-05-15T01:41:44;9.70;99.90
23087;DHT22;11712;51.134;4.156;2023-05-15T01:44:14;9.70;99.90
23087;DHT22;11712;51.134;4.156;2023-05-15T01:46:41;9.80;99.90
23087;DHT22;11712;51.134;4.156;2023-05-15T01:49:10;9.80;99.90
23087;DHT22;11712;51.134;4.156;2023-05-15T01:51:36;9.80;99.90
23087;DHT22;11712;51.134;4.156;2023-05-15T01:54:03;9.90;99.90
23087;DHT22;11712;51.134;4.156;2023-05-15T01:56:29;9.80;99.90
23087;DHT22;11712;51.134;4.156;2023-05-15T01:58:56;9.70;99.90
23087;DHT22;11712;51.134;4.156;2023-05-15T02:01:21;9.70;99.90
23087;DHT22;11712;51.134;4.156;2023-05-15T02:03:47;9.70;99.90
23087;DHT22;11712;51.134;4.156;2023-05-15T02:06:13;9.70;99.90
23087;DHT22;11712;51.134;4.156;2023-05-15T02:08:39;9.70;99.90
23087;DHT22;11712;51.134;4.156;2023-05-15T02:11:06;9.80;99.90
23087;DHT22;11712;51.134;4.156;2023-05-15T02:13:32;9.60;99.90
23087;DHT22;11712;51.134;4.156;2023-05-15T02:15:58;9.70;99.90
23087;DHT22;11712;51.134;4.156;2023-05-15T02:18:24;9.70;99.90
23087;DHT22;11712;51.134;4.156;2023-05-15T02:20:49;9.70;99.90
23087;DHT22;11712;51.134;4.156;2023-05-15T02:23:15;9.70;99.90
23087;DHT22;11712;51.134;4.156;2023-05-15T02:28:12;9.70;99.90
23087;DHT22;11712;51.134;4.156;2023-05-15T02:38:12;9.70;99.90
23087;DHT22;11712;51.134;4.156;2023-05-15T02:40:40;9.70;99.90
23087;DHT22;11712;51.134;4.156;2023-05-15T02:43:06;9.60;99.90
23087;DHT22;11712;51.134;4.156;2023-05-15T02:45:32;9.60;99.90
23087;DHT22;11712;51.134;4.156;2023-05-15T02:47:58;9.60;99.90
23087;DHT22;11712;51.134;4.156;2023-05-15T02:50:24;9.60;99.90
23087;DHT22;11712;51.134;4.156;2023-05-15T02:52:50;9.60;99.90
23087;DHT22;11712;51.134;4.156;2023-05-15T02:55:25;9.50;99.90
23087;DHT22;11712;51.134;4.156;2023-05-15T02:57:50;9.40;99.90
23087;DHT22;11712;51.134;4.156;2023-05-15T03:00:16;9.30;99.90
23087;DHT22;11712;51.134;4.156;2023-05-15T03:02:42;9.30;99.90
23087;DHT22;11712;51.134;4.156;2023-05-15T03:05:07;9.30;99.90
23087;DHT22;11712;51.134;4.156;2023-05-15T03:07:34;9.30;99.90
23087;DHT22;11712;51.134;4.156;2023-05-15T03:09:59;9.20;99.90
23087;DHT22;11712;51.134;4.156;2023-05-15T03:12:25;9.20;99.90
23087;DHT22;11712;51.134;4.156;2023-05-15T03:14:51;9.20;99.90
23087;DHT22;11712;51.134;4.156;2023-05-15T03:17:16;9.10;99.90
23087;DHT22;11712;51.134;4.156;2023-05-15T03:19:42;9.10;99.90
23087;DHT22;11712;51.134;4.156;2023-05-15T03:22:07;9.10;99.90
23087;DHT22;11712;51.134;4.156;2023-05-15T03:24:33;9.10;99.90
23087;DHT22;11712;51.134;4.156;2023-05-15T03:26:58;8.90;99.90
23087;DHT22;11712;51.134;4.156;2023-05-15T03:29:24;9.00;99.90
23087;DHT22;11712;51.134;4.156;2023-05-15T03:31:50;9.10;99.90
23087;DHT22;11712;51.134;4.156;2023-05-15T03:34:15;9.00;99.90
23087;DHT22;11712;51.134;4.156;2023-05-15T03:36:41;9.20;99.90
23087;DHT22;11712;51.134;4.156;2023-05-15T03:39:06;9.00;99.90
23087;DHT22;11712;51.134;4.156;2023-05-15T03:41:32;9.00;99.90
23087;DHT22;11712;51.134;4.156;2023-05-15T03:43:57;9.00;99.90
23087;DHT22;11712;51.134;4.156;2023-05-15T03:46:23;9.00;99.90
23087;DHT22;11712;51.134;4.156;2023-05-15T03:48:48;9.00;99.90
23087;DHT22;11712;51.134;4.156;2023-05-15T03:51:14;9.10;99.90
23087;DHT22;11712;51.134;4.156;2023-05-15T03:53:39;9.10;99.90
23087;DHT22;11712;51.134;4.156;2023-05-15T03:56:05;9.10;99.90
23087;DHT22;11712;51.134;4.156;2023-05-15T03:58:31;9.10;99.90
23087;DHT22;11712;51.134;4.156;2023-05-15T04:00:56;9.10;99.90
23087;DHT22;11712;51.134;4.156;2023-05-15T04:03:22;9.10;99.90
23087;DHT22;11712;51.134;4.156;2023-05-15T04:05:48;9.20;99.90
23087;DHT22;11712;51.134;4.156;2023-05-15T04:08:14;9.30;99.90
23087;DHT22;11712;51.134;4.156;2023-05-15T04:10:40;9.40;99.90
23087;DHT22;11712;51.134;4.156;2023-05-15T04:13:05;9.50;99.90
23087;DHT22;11712;51.134;4.156;2023-05-15T04:15:31;9.50;99.90
23087;DHT22;11712;51.134;4.156;2023-05-15T04:17:57;9.50;99.90
23087;DHT22;11712;51.134;4.156;2023-05-15T04:20:23;9.60;99.90
23087;DHT22;11712;51.134;4.156;2023-05-15T04:22:49;9.50;99.90
23087;DHT22;11712;51.134;4.156;2023-05-15T04:25:15;9.50;99.90
23087;DHT22;11712;51.134;4.156;2023-05-15T04:27:40;9.50;99.90
23087;DHT22;11712;51.134;4.156;2023-05-15T04:30:06;9.50;99.90
23087;DHT22;11712;51.134;4.156;2023-05-15T04:32:32;9.60;99.90
23087;DHT22;11712;51.134;4.156;2023-05-15T04:35:04;9.40;99.90
23087;DHT22;11712;51.134;4.156;2023-05-15T04:37:30;9.50;99.90
23087;DHT22;11712;51.134;4.156;2023-05-15T04:39:56;9.50;99.90
23087;DHT22;11712;51.134;4.156;2023-05-15T04:42:21;9.40;99.90
23087;DHT22;11712;51.134;4.156;2023-05-15T04:44:47;9.30;99.90
23087;DHT22;11712;51.134;4.156;2023-05-15T04:47:12;9.30;99.90
23087;DHT22;11712;51.134;4.156;2023-05-15T04:49:38;9.40;99.90
23087;DHT22;11712;51.134;4.156;2023-05-15T04:52:04;9.40;99.90
23087;DHT22;11712;51.134;4.156;2023-05-15T04:54:30;9.30;99.90
23087;DHT22;11712;51.134;4.156;2023-05-15T04:56:55;9.20;99.90
23087;DHT22;11712;51.134;4.156;2023-05-15T04:59:22;9.40;99.90
23087;DHT22;11712;51.134;4.156;2023-05-15T05:01:49;9.30;99.90
23087;DHT22;11712;51.134;4.156;2023-05-15T05:04:15;9.30;99.90
23087;DHT22;11712;51.134;4.156;2023-05-15T05:06:46;9.30;99.90
23087;DHT22;11712;51.134;4.156;2023-05-15T05:09:12;9.20;99.90
23087;DHT22;11712;51.134;4.156;2023-05-15T05:11:37;9.20;99.90
23087;DHT22;11712;51.134;4.156;2023-05-15T05:14:03;9.30;99.90
23087;DHT22;11712;51.134;4.156;2023-05-15T05:16:29;9.40;99.90
23087;DHT22;11712;51.134;4.156;2023-05-15T05:18:54;9.40;99.90
23087;DHT22;11712;51.134;4.156;2023-05-15T05:21:20;9.60;99.90
23087;DHT22;11712;51.134;4.156;2023-05-15T05:23:46;9.70;99.90
23087;DHT22;11712;51.134;4.156;2023-05-15T05:26:11;9.90;99.90
23087;DHT22;11712;51.134;4.156;2023-05-15T05:28:37;10.20;99.90
23087;DHT22;11712;51.134;4.156;2023-05-15T05:31:02;10.20;99.90
23087;DHT22;11712;51.134;4.156;2023-05-15T05:33:28;10.20;99.90
23087;DHT22;11712;51.134;4.156;2023-05-15T05:35:53;10.40;99.90
23087;DHT22;11712;51.134;4.156;2023-05-15T05:38:20;10.50;99.90
23087;DHT22;11712;51.134;4.156;2023-05-15T05:40:45;10.50;99.90
23087;DHT22;11712;51.134;4.156;2023-05-15T05:43:11;10.70;99.90
23087;DHT22;11712;51.134;4.156;2023-05-15T05:45:36;10.60;99.90
23087;DHT22;11712;51.134;4.156;2023-05-15T05:48:02;10.60;99.90
23087;DHT22;11712;51.134;4.156;2023-05-15T05:50:27;10.70;99.90
23087;DHT22;11712;51.134;4.156;2023-05-15T05:52:53;10.80;99.90
23087;DHT22;11712;51.134;4.156;2023-05-15T05:55:19;10.90;99.90
23087;DHT22;11712;51.134;4.156;2023-05-15T05:57:44;11.00;99.90
23087;DHT22;11712;51.134;4.156;2023-05-15T06:00:10;11.20;99.90
23087;DHT22;11712;51.134;4.156;2023-05-15T06:02:36;11.20;99.90
23087;DHT22;11712;51.134;4.156;2023-05-15T06:05:02;11.20;99.90
23087;DHT22;11712;51.134;4.156;2023-05-15T06:07:28;11.20;99.90
23087;DHT22;11712;51.134;4.156;2023-05-15T06:09:54;11.20;99.90
23087;DHT22;11712;51.134;4.156;2023-05-15T06:12:20;11.10;99.90
23087;DHT22;11712;51.134;4.156;2023-05-15T06:14:46;11.30;99.90
23087;DHT22;11712;51.134;4.156;2023-05-15T06:17:11;11.20;99.90
23087;DHT22;11712;51.134;4.156;2023-05-15T06:19:37;11.10;99.90
23087;DHT22;11712;51.134;4.156;2023-05-15T06:22:03;11.00;99.90
23087;DHT22;11712;51.134;4.156;2023-05-15T06:24:28;11.10;99.90
23087;DHT22;11712;51.134;4.156;2023-05-15T06:26:54;11.30;99.90
23087;DHT22;11712;51.134;4.156;2023-05-15T06:29:20;11.30;99.90
23087;DHT22;11712;51.134;4.156;2023-05-15T06:31:45;11.20;99.90
23087;DHT22;11712;51.134;4.156;2023-05-15T06:34:11;11.20;99.90
23087;DHT22;11712;51.134;4.156;2023-05-15T06:36:36;11.10;99.90
23087;DHT22;11712;51.134;4.156;2023-05-15T06:39:02;11.20;99.90
23087;DHT22;11712;51.134;4.156;2023-05-15T06:41:27;11.20;99.90
23087;DHT22;11712;51.134;4.156;2023-05-15T06:43:53;11.10;99.90
23087;DHT22;11712;51.134;4.156;2023-05-15T06:46:19;11.20;99.90
23087;DHT22;11712;51.134;4.156;2023-05-15T06:48:45;11.40;99.90
23087;DHT22;11712;51.134;4.156;2023-05-15T06:51:11;11.50;99.90
23087;DHT22;11712;51.134;4.156;2023-05-15T06:53:37;11.50;99.90
23087;DHT22;11712;51.134;4.156;2023-05-15T06:56:02;11.40;99.90
23087;DHT22;11712;51.134;4.156;2023-05-15T06:58:28;11.60;99.90
23087;DHT22;11712;51.134;4.156;2023-05-15T07:00:53;11.80;99.90
23087;DHT22;11712;51.134;4.156;2023-05-15T07:03:19;12.00;99.90
23087;DHT22;11712;51.134;4.156;2023-05-15T07:05:45;12.10;99.90
23087;DHT22;11712;51.134;4.156;2023-05-15T07:08:11;12.00;99.90
23087;DHT22;11712;51.134;4.156;2023-05-15T07:10:36;12.10;99.90
23087;DHT22;11712;51.134;4.156;2023-05-15T07:13:02;12.10;99.90
23087;DHT22;11712;51.134;4.156;2023-05-15T07:15:27;12.30;99.90
23087;DHT22;11712;51.134;4.156;2023-05-15T07:17:53;12.50;99.90
23087;DHT22;11712;51.134;4.156;2023-05-15T07:20:19;12.60;99.90
23087;DHT22;11712;51.134;4.156;2023-05-15T07:22:44;12.60;99.90
23087;DHT22;11712;51.134;4.156;2023-05-15T07:25:10;12.70;99.90
23087;DHT22;11712;51.134;4.156;2023-05-15T07:27:36;12.80;99.90
23087;DHT22;11712;51.134;4.156;2023-05-15T07:30:02;12.90;99.90
23087;DHT22;11712;51.134;4.156;2023-05-15T07:32:28;13.00;99.90
23087;DHT22;11712;51.134;4.156;2023-05-15T07:34:54;13.30;99.90
23087;DHT22;11712;51.134;4.156;2023-05-15T07:37:20;13.30;99.90
23087;DHT22;11712;51.134;4.156;2023-05-15T07:39:47;13.30;99.90
23087;DHT22;11712;51.134;4.156;2023-05-15T07:42:12;13.50;99.90
23087;DHT22;11712;51.134;4.156;2023-05-15T07:44:38;13.60;99.90
23087;DHT22;11712;51.134;4.156;2023-05-15T07:47:04;13.60;99.90
23087;DHT22;11712;51.134;4.156;2023-05-15T07:49:29;13.70;99.90
23087;DHT22;11712;51.134;4.156;2023-05-15T07:51:55;13.30;99.90
23087;DHT22;11712;51.134;4.156;2023-05-15T07:54:21;13.00;99.90
23087;DHT22;11712;51.134;4.156;2023-05-15T07:56:47;13.10;99.90
23087;DHT22;11712;51.134;4.156;2023-05-15T07:59:12;13.50;99.90
23087;DHT22;11712;51.134;4.156;2023-05-15T08:01:38;13.70;99.90
23087;DHT22;11712;51.134;4.156;2023-05-15T08:04:05;13.90;99.90
23087;DHT22;11712;51.134;4.156;2023-05-15T08:06:31;13.90;99.90
23087;DHT22;11712;51.134;4.156;2023-05-15T08:08:57;13.60;99.90
23087;DHT22;11712;51.134;4.156;2023-05-15T08:11:22;14.00;99.90
23087;DHT22;11712;51.134;4.156;2023-05-15T08:13:48;14.20;99.90
23087;DHT22;11712;51.134;4.156;2023-05-15T08:16:14;14.00;99.90
23087;DHT22;11712;51.134;4.156;2023-05-15T08:18:39;14.10;99.90
23087;DHT22;11712;51.134;4.156;2023-05-15T08:21:05;14.00;99.90
23087;DHT22;11712;51.134;4.156;2023-05-15T08:23:30;13.60;99.90
23087;DHT22;11712;51.134;4.156;2023-05-15T08:25:56;13.70;99.90
23087;DHT22;11712;51.134;4.156;2023-05-15T08:28:22;13.60;99.90
23087;DHT22;11712;51.134;4.156;2023-05-15T08:30:47;13.70;99.90
23087;DHT22;11712;51.134;4.156;2023-05-15T08:33:13;13.90;99.90
23087;DHT22;11712;51.134;4.156;2023-05-15T08:35:38;13.90;99.90
23087;DHT22;11712;51.134;4.156;2023-05-15T08:38:04;13.90;99.90
23087;DHT22;11712;51.134;4.156;2023-05-15T08:40:29;14.10;99.90
23087;DHT22;11712;51.134;4.156;2023-05-15T08:42:55;14.10;99.90
23087;DHT22;11712;51.134;4.156;2023-05-15T08:45:23;14.20;99.90
23087;DHT22;11712;51.134;4.156;2023-05-15T08:47:50;14.20;99.90
23087;DHT22;11712;51.134;4.156;2023-05-15T08:50:15;14.20;99.90
23087;DHT22;11712;51.134;4.156;2023-05-15T08:52:42;14.20;99.90
23087;DHT22;11712;51.134;4.156;2023-05-15T08:55:08;14.00;99.90
23087;DHT22;11712;51.134;4.156;2023-05-15T08:57:35;13.70;99.90
23087;DHT22;11712;51.134;4.156;2023-05-15T09:00:01;13.70;99.90
23087;DHT22;11712;51.134;4.156;2023-05-15T09:02:28;13.80;99.90
23087;DHT22;11712;51.134;4.156;2023-05-15T09:04:54;13.90;99.90
23087;DHT22;11712;51.134;4.156;2023-05-15T09:07:20;14.00;99.90
23087;DHT22;11712;51.134;4.156;2023-05-15T09:09:45;14.00;99.90
23087;DHT22;11712;51.134;4.156;2023-05-15T09:12:13;13.80;99.90
23087;DHT22;11712;51.134;4.156;2023-05-15T09:14:39;13.80;99.90
23087;DHT22;11712;51.134;4.156;2023-05-15T09:17:04;13.70;99.90
23087;DHT22;11712;51.134;4.156;2023-05-15T09:19:30;14.00;99.90
23087;DHT22;11712;51.134;4.156;2023-05-15T09:22:19;14.00;99.90
23087;DHT22;11712;51.134;4.156;2023-05-15T09:24:51;14.30;99.90
23087;DHT22;11712;51.134;4.156;2023-05-15T09:27:22;14.50;99.90
23087;DHT22;11712;51.134;4.156;2023-05-15T09:29:48;14.40;99.90
23087;DHT22;11712;51.134;4.156;2023-05-15T09:32:18;14.20;99.90
23087;DHT22;11712;51.134;4.156;2023-05-15T09:34:44;14.00;99.90
23087;DHT22;11712;51.134;4.156;2023-05-15T09:37:12;13.70;99.90
23087;DHT22;11712;51.134;4.156;2023-05-15T09:39:51;13.70;99.90
23087;DHT22;11712;51.134;4.156;2023-05-15T09:42:16;13.90;99.90
23087;DHT22;11712;51.134;4.156;2023-05-15T09:44:42;14.00;99.90
23087;DHT22;11712;51.134;4.156;2023-05-15T09:47:08;14.00;99.90
23087;DHT22;11712;51.134;4.156;2023-05-15T09:49:34;14.10;99.90
23087;DHT22;11712;51.134;4.156;2023-05-15T09:52:00;13.90;99.90
23087;DHT22;11712;51.134;4.156;2023-05-15T09:54:26;14.20;99.90
23087;DHT22;11712;51.134;4.156;2023-05-15T09:56:52;14.10;99.90
23087;DHT22;11712;51.134;4.156;2023-05-15T09:59:18;14.10;99.90
23087;DHT22;11712;51.134;4.156;2023-05-15T10:01:47;14.10;99.90
23087;DHT22;11712;51.134;4.156;2023-05-15T10:04:13;14.20;99.90
23087;DHT22;11712;51.134;4.156;2023-05-15T10:06:39;14.20;99.90
23087;DHT22;11712;51.134;4.156;2023-05-15T10:09:05;14.10;99.90
23087;DHT22;11712;51.134;4.156;2023-05-15T10:11:34;14.00;99.90
23087;DHT22;11712;51.134;4.156;2023-05-15T10:14:01;14.00;99.90
23087;DHT22;11712;51.134;4.156;2023-05-15T10:16:26;13.80;99.90
23087;DHT22;11712;51.134;4.156;2023-05-15T10:18:53;13.90;99.90
23087;DHT22;11712;51.134;4.156;2023-05-15T10:21:21;13.80;99.90
23087;DHT22;11712;51.134;4.156;2023-05-15T10:23:49;13.70;99.90
23087;DHT22;11712;51.134;4.156;2023-05-15T10:26:26;13.60;99.90
23087;DHT22;11712;51.134;4.156;2023-05-15T10:28:54;13.70;99.90
23087;DHT22;11712;51.134;4.156;2023-05-15T10:31:20;13.90;99.90
23087;DHT22;11712;51.134;4.156;2023-05-15T10:33:46;13.90;99.90
23087;DHT22;11712;51.134;4.156;2023-05-15T10:36:12;13.70;99.90
23087;DHT22;11712;51.134;4.156;2023-05-15T10:38:38;13.60;99.90
23087;DHT22;11712;51.134;4.156;2023-05-15T10:41:04;13.70;99.90
23087;DHT22;11712;51.134;4.156;2023-05-15T10:43:31;13.60;99.90
23087;DHT22;11712;51.134;4.156;2023-05-15T10:45:57;13.60;99.90
23087;DHT22;11712;51.134;4.156;2023-05-15T10:48:23;13.70;99.90
23087;DHT22;11712;51.134;4.156;2023-05-15T10:50:49;13.60;99.90
23087;DHT22;11712;51.134;4.156;2023-05-15T10:53:15;13.70;99.90
23087;DHT22;11712;51.134;4.156;2023-05-15T10:55:41;13.80;99.90
23087;DHT22;11712;51.134;4.156;2023-05-15T10:58:07;13.90;99.90
23087;DHT22;11712;51.134;4.156;2023-05-15T11:00:33;13.90;99.90
23087;DHT22;11712;51.134;4.156;2023-05-15T11:03:05;13.80;99.90
23087;DHT22;11712;51.134;4.156;2023-05-15T11:05:30;13.70;99.90
23087;DHT22;11712;51.134;4.156;2023-05-15T11:10:43;13.30;99.90
23087;DHT22;11712;51.134;4.156;2023-05-15T11:13:09;13.20;99.90
23087;DHT22;11712;51.134;4.156;2023-05-15T11:15:42;13.20;99.90
23087;DHT22;11712;51.134;4.156;2023-05-15T11:18:08;13.20;99.90
23087;DHT22;11712;51.134;4.156;2023-05-15T11:22:59;13.20;99.90
23087;DHT22;11712;51.134;4.156;2023-05-15T11:25:29;13.10;99.90
23087;DHT22;11712;51.134;4.156;2023-05-15T11:27:55;13.00;99.90
23087;DHT22;11712;51.134;4.156;2023-05-15T11:30:21;13.00;99.90
23087;DHT22;11712;51.134;4.156;2023-05-15T11:32:58;13.10;99.90
23087;DHT22;11712;51.134;4.156;2023-05-15T11:40:44;13.20;99.90
23087;DHT22;11712;51.134;4.156;2023-05-15T11:45:52;13.40;99.90
23087;DHT22;11712;51.134;4.156;2023-05-15T11:48:21;13.30;99.90
23087;DHT22;11712;51.134;4.156;2023-05-15T11:50:47;13.30;99.90
23087;DHT22;11712;51.134;4.156;2023-05-15T11:53:13;13.10;99.90
23087;DHT22;11712;51.134;4.156;2023-05-15T11:55:39;13.00;99.90
23087;DHT22;11712;51.134;4.156;2023-05-15T11:58:15;12.90;99.90
23087;DHT22;11712;51.134;4.156;2023-05-15T12:00:41;12.70;99.90
23087;DHT22;11712;51.134;4.156;2023-05-15T12:03:20;12.70;99.90
23087;DHT22;11712;51.134;4.156;2023-05-15T12:05:46;12.80;99.90
23087;DHT22;11712;51.134;4.156;2023-05-15T12:08:12;12.70;99.90
23087;DHT22;11712;51.134;4.156;2023-05-15T12:10:41;12.60;99.90
23087;DHT22;11712;51.134;4.156;2023-05-15T12:13:07;12.50;99.90
23087;DHT22;11712;51.134;4.156;2023-05-15T12:15:35;12.50;99.90
23087;DHT22;11712;51.134;4.156;2023-05-15T12:18:01;12.50;99.90
23087;DHT22;11712;51.134;4.156;2023-05-15T12:20:27;12.70;99.90
23087;DHT22;11712;51.134;4.156;2023-05-15T12:22:53;12.70;99.90
23087;DHT22;11712;51.134;4.156;2023-05-15T12:25:18;12.60;99.90
23087;DHT22;11712;51.134;4.156;2023-05-15T12:27:44;12.50;99.90
23087;DHT22;11712;51.134;4.156;2023-05-15T12:30:12;12.50;99.90
23087;DHT22;11712;51.134;4.156;2023-05-15T12:32:38;12.60;99.90
23087;DHT22;11712;51.134;4.156;2023-05-15T12:35:04;12.60;99.90
23087;DHT22;11712;51.134;4.156;2023-05-15T12:37:30;12.60;99.90
23087;DHT22;11712;51.134;4.156;2023-05-15T12:39:58;12.60;99.90
23087;DHT22;11712;51.134;4.156;2023-05-15T12:42:24;12.70;99.90
23087;DHT22;11712;51.134;4.156;2023-05-15T12:44:50;12.70;99.90
23087;DHT22;11712;51.134;4.156;2023-05-15T12:47:34;12.60;99.90
23087;DHT22;11712;51.134;4.156;2023-05-15T12:50:00;12.60;99.90
23087;DHT22;11712;51.134;4.156;2023-05-15T12:52:29;12.50;99.90
23087;DHT22;11712;51.134;4.156;2023-05-15T12:54:58;12.50;99.90
23087;DHT22;11712;51.134;4.156;2023-05-15T12:57:24;12.40;99.90
23087;DHT22;11712;51.134;4.156;2023-05-15T12:59:49;12.50;99.90
23087;DHT22;11712;51.134;4.156;2023-05-15T13:02:15;12.60;99.90
23087;DHT22;11712;51.134;4.156;2023-05-15T13:04:41;12.50;99.90
23087;DHT22;11712;51.134;4.156;2023-05-15T13:07:06;12.60;99.90
23087;DHT22;11712;51.134;4.156;2023-05-15T13:09:32;12.60;99.90
23087;DHT22;11712;51.134;4.156;2023-05-15T13:12:02;12.70;99.90
23087;DHT22;11712;51.134;4.156;2023-05-15T13:14:31;12.70;99.90
23087;DHT22;11712;51.134;4.156;2023-05-15T13:16:57;12.60;99.90
23087;DHT22;11712;51.134;4.156;2023-05-15T13:19:23;12.40;99.90
23087;DHT22;11712;51.134;4.156;2023-05-15T13:21:49;12.50;99.90
23087;DHT22;11712;51.134;4.156;2023-05-15T13:24:15;12.50;99.90
23087;DHT22;11712;51.134;4.156;2023-05-15T13:26:40;12.40;99.90
23087;DHT22;11712;51.134;4.156;2023-05-15T13:29:06;12.50;99.90
23087;DHT22;11712;51.134;4.156;2023-05-15T13:31:31;12.60;99.90
23087;DHT22;11712;51.134;4.156;2023-05-15T13:33:57;12.70;99.90
23087;DHT22;11712;51.134;4.156;2023-05-15T13:36:23;12.60;99.90
23087;DHT22;11712;51.134;4.156;2023-05-15T13:38:48;12.60;99.90
23087;DHT22;11712;51.134;4.156;2023-05-15T13:41:14;12.50;99.90
23087;DHT22;11712;51.134;4.156;2023-05-15T13:43:39;12.40;99.90
23087;DHT22;11712;51.134;4.156;2023-05-15T13:46:05;12.40;99.90
23087;DHT22;11712;51.134;4.156;2023-05-15T13:48:30;12.40;99.90
23087;DHT22;11712;51.134;4.156;2023-05-15T13:50:56;12.20;99.90
23087;DHT22;11712;51.134;4.156;2023-05-15T13:53:22;12.10;99.90
23087;DHT22;11712;51.134;4.156;2023-05-15T13:55:47;12.10;99.90
23087;DHT22;11712;51.134;4.156;2023-05-15T13:58:13;12.30;99.90
23087;DHT22;11712;51.134;4.156;2023-05-15T14:00:40;12.40;99.90
23087;DHT22;11712;51.134;4.156;2023-05-15T14:03:06;12.60;99.90
23087;DHT22;11712;51.134;4.156;2023-05-15T14:05:32;12.60;99.90
23087;DHT22;11712;51.134;4.156;2023-05-15T14:07:58;12.70;99.90
23087;DHT22;11712;51.134;4.156;2023-05-15T14:10:24;12.70;99.90
23087;DHT22;11712;51.134;4.156;2023-05-15T14:12:49;12.70;99.90
23087;DHT22;11712;51.134;4.156;2023-05-15T14:15:15;12.80;99.90
23087;DHT22;11712;51.134;4.156;2023-05-15T14:17:40;12.80;99.90
23087;DHT22;11712;51.134;4.156;2023-05-15T14:20:07;12.80;99.90
23087;DHT22;11712;51.134;4.156;2023-05-15T14:22:34;12.90;99.90
23087;DHT22;11712;51.134;4.156;2023-05-15T14:25:01;12.90;99.90
23087;DHT22;11712;51.134;4.156;2023-05-15T14:27:28;12.50;99.90
23087;DHT22;11712;51.134;4.156;2023-05-15T14:29:53;12.40;99.90
23087;DHT22;11712;51.134;4.156;2023-05-15T14:32:21;12.30;99.90
23087;DHT22;11712;51.134;4.156;2023-05-15T14:34:47;12.10;99.90
23087;DHT22;11712;51.134;4.156;2023-05-15T14:37:12;12.30;99.90
23087;DHT22;11712;51.134;4.156;2023-05-15T14:39:38;12.20;99.90
23087;DHT22;11712;51.134;4.156;2023-05-15T14:42:04;12.20;99.90
23087;DHT22;11712;51.134;4.156;2023-05-15T14:44:30;12.10;99.90
23087;DHT22;11712;51.134;4.156;2023-05-15T14:47:06;12.10;99.90
23087;DHT22;11712;51.134;4.156;2023-05-15T14:49:32;12.30;99.90
23087;DHT22;11712;51.134;4.156;2023-05-15T14:51:57;12.20;99.90
23087;DHT22;11712;51.134;4.156;2023-05-15T14:54:23;12.20;99.90
23087;DHT22;11712;51.134;4.156;2023-05-15T14:56:49;12.10;99.90
23087;DHT22;11712;51.134;4.156;2023-05-15T14:59:14;12.10;99.90
23087;DHT22;11712;51.134;4.156;2023-05-15T15:01:40;12.10;99.90
23087;DHT22;11712;51.134;4.156;2023-05-15T15:04:06;12.20;99.90
23087;DHT22;11712;51.134;4.156;2023-05-15T15:06:31;12.10;99.90
23087;DHT22;11712;51.134;4.156;2023-05-15T15:08:57;12.30;99.90
23087;DHT22;11712;51.134;4.156;2023-05-15T15:11:22;12.40;99.90
23087;DHT22;11712;51.134;4.156;2023-05-15T15:13:48;12.50;99.90
23087;DHT22;11712;51.134;4.156;2023-05-15T15:16:13;12.50;99.90
23087;DHT22;11712;51.134;4.156;2023-05-15T15:18:39;12.60;99.90
23087;DHT22;11712;51.134;4.156;2023-05-15T15:21:05;12.60;99.90
23087;DHT22;11712;51.134;4.156;2023-05-15T15:23:30;12.50;99.90
23087;DHT22;11712;51.134;4.156;2023-05-15T15:25:56;12.50;99.90
23087;DHT22;11712;51.134;4.156;2023-05-15T15:28:21;12.60;99.90
23087;DHT22;11712;51.134;4.156;2023-05-15T15:30:47;12.70;99.90
23087;DHT22;11712;51.134;4.156;2023-05-15T15:33:12;12.70;99.90
23087;DHT22;11712;51.134;4.156;2023-05-15T15:35:38;12.80;99.90
23087;DHT22;11712;51.134;4.156;2023-05-15T15:38:04;12.80;99.90
23087;DHT22;11712;51.134;4.156;2023-05-15T15:40:30;12.70;99.90
23087;DHT22;11712;51.134;4.156;2023-05-15T15:42:56;12.70;99.90
23087;DHT22;11712;51.134;4.156;2023-05-15T15:45:21;12.90;99.90
23087;DHT22;11712;51.134;4.156;2023-05-15T15:47:47;12.90;99.90
23087;DHT22;11712;51.134;4.156;2023-05-15T15:50:12;12.80;99.90
23087;DHT22;11712;51.134;4.156;2023-05-15T15:52:38;12.90;99.90
23087;DHT22;11712;51.134;4.156;2023-05-15T15:55:04;13.00;99.90
23087;DHT22;11712;51.134;4.156;2023-05-15T15:57:31;12.90;99.90
23087;DHT22;11712;51.134;4.156;2023-05-15T15:59:56;13.00;99.90
23087;DHT22;11712;51.134;4.156;2023-05-15T16:02:22;13.00;99.90